createdAt,value
2023-03-04T00:00:47.097Z,1.82
2023-03-04T00:01:47.139Z,1.84
2023-03-04T00:02:47.143Z,1.78
2023-03-04T00:03:47.122Z,1.84
2023-03-04T00:04:47.126Z,1.79
2023-03-04T00:05:47.137Z,1.75
2023-03-04T00:06:47.145Z,1.86
2023-03-04T00:07:47.155Z,1.76
2023-03-04T00:08:47.167Z,1.76
2023-03-04T00:09:47.169Z,1.74
2023-03-04T00:10:47.178Z,1.79
2023-03-04T00:11:47.201Z,1.75
2023-03-04T00:12:47.189Z,1.71
2023-03-04T00:13:47.199Z,1.66
2023-03-04T00:14:47.206Z,1.66
2023-03-04T00:15:47.216Z,1.68
2023-03-04T00:16:47.243Z,1.76
2023-03-04T00:17:47.231Z,1.68
2023-03-04T00:18:47.238Z,1.70
2023-03-04T00:19:47.260Z,1.74
2023-03-04T00:20:47.253Z,1.79
2023-03-04T00:21:47.263Z,1.78
2023-03-04T00:22:48.066Z,1.78
2023-03-04T00:23:47.279Z,1.81
2023-03-04T00:24:47.281Z,1.82
2023-03-04T00:25:47.292Z,1.82
2023-03-04T00:26:47.301Z,1.93
2023-03-04T00:27:47.319Z,1.81
2023-03-04T00:28:47.319Z,1.85
2023-03-04T00:29:47.323Z,1.93
2023-03-04T00:30:47.331Z,1.93
2023-03-04T00:31:47.347Z,2.03
2023-03-04T00:32:47.392Z,2.01
2023-03-04T00:33:47.356Z,2.04
2023-03-04T00:34:47.360Z,2.03
2023-03-04T00:35:47.410Z,2.12
2023-03-04T00:36:47.377Z,2.15
2023-03-04T00:37:47.384Z,2.07
2023-03-04T00:38:47.396Z,2.16
2023-03-04T00:39:47.411Z,2.18
2023-03-04T00:40:47.410Z,2.16
2023-03-04T00:41:47.414Z,2.19
2023-03-04T00:42:47.421Z,2.18
2023-03-04T00:43:47.430Z,2.19
2023-03-04T00:44:47.442Z,2.21
2023-03-04T00:45:47.496Z,2.32
2023-03-04T00:46:47.481Z,2.40
2023-03-04T00:47:47.463Z,2.34
2023-03-04T00:48:47.472Z,2.40
2023-03-04T00:49:47.477Z,2.37
2023-03-04T00:50:47.491Z,2.39
2023-03-04T00:51:47.497Z,2.43
2023-03-04T00:52:47.504Z,2.43
2023-03-04T00:53:47.525Z,2.43
2023-03-04T00:54:47.532Z,2.37
2023-03-04T00:55:47.536Z,2.46
2023-03-04T00:56:47.537Z,2.55
2023-03-04T00:57:47.546Z,2.44
2023-03-04T00:58:47.555Z,2.43
2023-03-04T00:59:47.563Z,2.44
2023-03-04T01:00:47.587Z,2.54
2023-03-04T01:01:47.576Z,2.61
2023-03-04T01:02:47.681Z,2.51
2023-03-04T01:03:47.593Z,2.46
2023-03-04T01:04:47.608Z,2.51
2023-03-04T01:05:47.608Z,2.55
2023-03-04T01:06:47.625Z,2.59
2023-03-04T01:07:47.627Z,2.61
2023-03-04T01:08:47.634Z,2.61
2023-03-04T01:09:47.642Z,2.59
2023-03-04T01:10:47.648Z,2.62
2023-03-04T01:11:47.657Z,2.59
2023-03-04T01:12:47.677Z,2.62
2023-03-04T01:13:47.673Z,2.69
2023-03-04T01:14:47.682Z,2.61
2023-03-04T01:15:47.692Z,2.70
2023-03-04T01:16:47.713Z,2.68
2023-03-04T01:17:47.754Z,2.69
2023-03-04T01:18:47.720Z,2.72
2023-03-04T01:19:47.726Z,2.73
2023-03-04T01:20:47.743Z,2.73
2023-03-04T01:21:47.744Z,2.72
2023-03-04T01:22:47.751Z,2.76
2023-03-04T01:23:47.758Z,2.73
2023-03-04T01:24:47.763Z,2.73
2023-03-04T01:25:47.774Z,2.75
2023-03-04T01:26:47.793Z,2.72
2023-03-04T01:27:47.792Z,2.77
2023-03-04T01:28:47.798Z,2.70
2023-03-04T01:29:47.807Z,2.76
2023-03-04T01:30:47.858Z,2.75
2023-03-04T01:31:47.831Z,2.79
2023-03-04T01:32:47.830Z,2.75
2023-03-04T01:33:47.841Z,2.90
2023-03-04T01:34:47.848Z,2.80
2023-03-04T01:35:47.911Z,2.82
2023-03-04T01:36:47.864Z,2.87
2023-03-04T01:37:47.873Z,2.87
2023-03-04T01:38:47.891Z,2.85
2023-03-04T01:39:47.897Z,2.83
2023-03-04T01:40:47.906Z,2.83
2023-03-04T01:41:47.909Z,2.83
2023-03-04T01:42:47.917Z,2.85
2023-03-04T01:43:47.925Z,2.94
2023-03-04T01:44:47.938Z,2.91
2023-03-04T01:45:47.999Z,2.93
2023-03-04T01:46:47.953Z,2.94
2023-03-04T01:47:47.962Z,2.90
2023-03-04T01:48:47.999Z,2.88
2023-03-04T01:49:47.979Z,2.93
2023-03-04T01:50:47.984Z,2.85
2023-03-04T01:51:47.995Z,2.97
2023-03-04T01:52:48.000Z,2.85
2023-03-04T01:53:48.023Z,2.97
2023-03-04T01:54:48.022Z,2.95
2023-03-04T01:55:48.027Z,2.98
2023-03-04T01:56:48.034Z,3.00
2023-03-04T01:57:48.048Z,2.94
2023-03-04T01:58:48.055Z,2.91
2023-03-04T01:59:48.062Z,3.05
2023-03-04T02:00:48.070Z,3.00
2023-03-04T02:01:48.087Z,2.95
2023-03-04T02:02:48.084Z,2.97
2023-03-04T02:03:48.094Z,3.00
2023-03-04T02:04:48.104Z,3.03
2023-03-04T02:05:48.110Z,3.00
2023-03-04T02:06:48.120Z,3.03
2023-03-04T02:07:48.134Z,3.05
2023-03-04T02:08:48.137Z,3.15
2023-03-04T02:09:48.145Z,3.09
2023-03-04T02:10:48.159Z,3.06
2023-03-04T02:11:48.162Z,3.12
2023-03-04T02:12:48.171Z,3.09
2023-03-04T02:13:48.187Z,3.06
2023-03-04T02:14:48.189Z,3.09
2023-03-04T02:15:48.216Z,3.13
2023-03-04T02:16:48.205Z,3.12
2023-03-04T02:17:48.232Z,3.16
2023-03-04T02:18:48.222Z,3.13
2023-03-04T02:19:48.246Z,3.15
2023-03-04T02:20:48.240Z,3.24
2023-03-04T02:21:48.256Z,3.19
2023-03-04T02:22:48.269Z,3.26
2023-03-04T02:23:48.289Z,3.22
2023-03-04T02:24:48.292Z,3.40
2023-03-04T02:25:48.293Z,3.24
2023-03-04T02:26:48.304Z,3.30
2023-03-04T02:27:48.300Z,3.27
2023-03-04T02:28:48.331Z,3.34
2023-03-04T02:29:48.321Z,3.29
2023-03-04T02:30:48.341Z,3.24
2023-03-04T02:31:48.354Z,3.34
2023-03-04T02:32:48.352Z,3.24
2023-03-04T02:33:48.356Z,3.37
2023-03-04T02:34:48.373Z,3.34
2023-03-04T02:35:48.415Z,3.37
2023-03-04T02:36:48.381Z,3.43
2023-03-04T02:37:48.394Z,3.40
2023-03-04T02:38:48.404Z,3.41
2023-03-04T02:39:48.408Z,3.40
2023-03-04T02:40:48.436Z,3.34
2023-03-04T02:41:48.427Z,3.43
2023-03-04T02:42:48.438Z,3.37
2023-03-04T02:43:48.446Z,3.43
2023-03-04T02:44:48.452Z,3.43
2023-03-04T02:45:48.471Z,3.37
2023-03-04T02:46:48.485Z,3.45
2023-03-04T02:47:48.482Z,3.48
2023-03-04T02:48:48.492Z,3.45
2023-03-04T02:49:48.501Z,3.46
2023-03-04T02:50:48.506Z,3.49
2023-03-04T02:51:48.518Z,3.49
2023-03-04T02:52:48.525Z,3.52
2023-03-04T02:53:48.534Z,3.50
2023-03-04T02:54:48.545Z,3.43
2023-03-04T02:55:48.554Z,3.49
2023-03-04T02:56:48.574Z,3.49
2023-03-04T02:57:48.573Z,3.49
2023-03-04T02:58:48.578Z,3.46
2023-03-04T02:59:48.589Z,3.52
2023-03-04T03:00:48.604Z,3.59
2023-03-04T03:01:48.633Z,3.50
2023-03-04T03:02:48.658Z,3.63
2023-03-04T03:03:48.628Z,3.55
2023-03-04T03:04:48.641Z,3.61
2023-03-04T03:05:48.653Z,3.66
2023-03-04T03:06:48.656Z,3.55
2023-03-04T03:07:48.669Z,3.53
2023-03-04T03:08:48.673Z,3.58
2023-03-04T03:09:48.681Z,3.63
2023-03-04T03:10:48.692Z,3.61
2023-03-04T03:11:48.703Z,3.63
2023-03-04T03:12:48.709Z,3.64
2023-03-04T03:13:48.719Z,3.70
2023-03-04T03:14:48.725Z,3.63
2023-03-04T03:15:50.126Z,3.66
2023-03-04T03:16:48.752Z,3.71
2023-03-04T03:17:48.757Z,3.64
2023-03-04T03:18:48.763Z,3.67
2023-03-04T03:19:48.788Z,3.58
2023-03-04T03:20:48.782Z,3.63
2023-03-04T03:21:48.789Z,3.71
2023-03-04T03:22:48.798Z,3.71
2023-03-04T03:23:48.807Z,3.66
2023-03-04T03:24:48.816Z,3.71
2023-03-04T03:25:48.826Z,3.71
2023-03-04T03:26:48.833Z,3.77
2023-03-04T03:27:48.846Z,3.73
2023-03-04T03:28:48.850Z,3.70
2023-03-04T03:29:48.860Z,3.74
2023-03-04T03:30:48.871Z,3.66
2023-03-04T03:31:48.956Z,3.70
2023-03-04T03:32:48.887Z,3.71
2023-03-04T03:33:48.900Z,3.74
2023-03-04T03:34:48.905Z,3.73
2023-03-04T03:35:48.960Z,3.77
2023-03-04T03:36:48.931Z,3.77
2023-03-04T03:37:48.938Z,3.77
2023-03-04T03:38:48.946Z,3.81
2023-03-04T03:39:48.975Z,3.78
2023-03-04T03:40:48.963Z,3.71
2023-03-04T03:41:48.970Z,3.77
2023-03-04T03:42:48.981Z,3.82
2023-03-04T03:43:48.990Z,3.77
2023-03-04T03:44:48.997Z,3.76
2023-03-04T03:45:49.049Z,3.74
2023-03-04T03:46:49.027Z,3.81
2023-03-04T03:47:49.030Z,3.82
2023-03-04T03:48:49.040Z,3.76
2023-03-04T03:49:49.047Z,3.84
2023-03-04T03:50:49.056Z,3.84
2023-03-04T03:51:49.073Z,3.78
2023-03-04T03:52:49.074Z,3.81
2023-03-04T03:53:49.089Z,3.82
2023-03-04T03:54:49.091Z,3.77
2023-03-04T03:55:49.102Z,3.84
2023-03-04T03:56:49.109Z,3.78
2023-03-04T03:57:49.121Z,3.74
2023-03-04T03:58:49.140Z,3.76
2023-03-04T03:59:49.144Z,3.86
2023-03-04T04:00:49.148Z,3.73
2023-03-04T04:01:49.163Z,3.76
2023-03-04T04:02:49.295Z,3.82
2023-03-04T04:03:49.179Z,3.73
2023-03-04T04:04:49.186Z,3.82
2023-03-04T04:05:49.195Z,3.71
2023-03-04T04:06:49.205Z,3.77
2023-03-04T04:07:49.225Z,3.70
2023-03-04T04:08:49.223Z,3.67
2023-03-04T04:09:49.233Z,3.77
2023-03-04T04:10:49.244Z,3.71
2023-03-04T04:11:49.254Z,3.77
2023-03-04T04:12:49.293Z,3.78
2023-03-04T04:13:49.274Z,3.74
2023-03-04T04:14:49.280Z,3.81
2023-03-04T04:15:49.287Z,3.78
2023-03-04T04:16:49.349Z,3.85
2023-03-04T04:17:49.306Z,3.77
2023-03-04T04:18:49.323Z,3.84
2023-03-04T04:19:49.326Z,3.74
2023-03-04T04:20:49.334Z,3.84
2023-03-04T04:21:49.352Z,3.78
2023-03-04T04:22:49.356Z,3.81
2023-03-04T04:23:49.361Z,3.82
2023-03-04T04:24:49.382Z,3.89
2023-03-04T04:25:49.389Z,3.82
2023-03-04T04:26:49.392Z,3.86
2023-03-04T04:27:49.398Z,3.95
2023-03-04T04:28:49.407Z,3.95
2023-03-04T04:29:49.416Z,3.82
2023-03-04T04:30:49.430Z,3.84
2023-03-04T04:31:49.436Z,3.89
2023-03-04T04:32:49.450Z,3.85
2023-03-04T04:33:49.462Z,3.85
2023-03-04T04:34:49.460Z,3.86
2023-03-04T04:35:49.494Z,3.92
2023-03-04T04:36:49.482Z,3.91
2023-03-04T04:37:49.488Z,3.86
2023-03-04T04:38:49.501Z,3.89
2023-03-04T04:39:49.508Z,3.86
2023-03-04T04:40:49.520Z,3.96
2023-03-04T04:41:49.525Z,3.89
2023-03-04T04:42:49.536Z,4.03
2023-03-04T04:43:49.544Z,3.89
2023-03-04T04:44:49.554Z,3.88
2023-03-04T04:45:49.596Z,4.03
2023-03-04T04:46:49.575Z,3.94
2023-03-04T04:47:49.584Z,4.02
2023-03-04T04:48:49.591Z,4.02
2023-03-04T04:49:49.601Z,4.00
2023-03-04T04:50:49.610Z,4.02
2023-03-04T04:51:49.619Z,4.00
2023-03-04T04:52:49.627Z,4.00
2023-03-04T04:53:49.637Z,4.00
2023-03-04T04:54:49.653Z,4.00
2023-03-04T04:55:49.657Z,4.04
2023-03-04T04:56:49.667Z,4.12
2023-03-04T04:57:49.675Z,4.06
2023-03-04T04:58:49.700Z,4.06
2023-03-04T04:59:49.700Z,4.07
2023-03-04T05:00:49.713Z,4.12
2023-03-04T05:01:49.714Z,4.10
2023-03-04T05:02:49.725Z,4.09
2023-03-04T05:03:49.749Z,4.13
2023-03-04T05:04:49.744Z,4.13
2023-03-04T05:05:49.756Z,4.04
2023-03-04T05:06:49.780Z,4.04
2023-03-04T05:07:49.774Z,4.04
2023-03-04T05:08:49.781Z,4.20
2023-03-04T05:09:49.793Z,4.12
2023-03-04T05:10:49.804Z,4.10
2023-03-04T05:11:49.819Z,4.14
2023-03-04T05:12:49.834Z,4.21
2023-03-04T05:13:49.858Z,4.09
2023-03-04T05:14:49.848Z,4.09
2023-03-04T05:15:49.857Z,4.21
2023-03-04T05:16:49.862Z,4.16
2023-03-04T05:17:49.869Z,4.20
2023-03-04T05:18:49.890Z,4.22
2023-03-04T05:19:49.896Z,4.20
2023-03-04T05:20:49.898Z,4.20
2023-03-04T05:21:49.910Z,4.14
2023-03-04T05:22:49.922Z,4.22
2023-03-04T05:23:49.932Z,4.21
2023-03-04T05:24:49.945Z,4.22
2023-03-04T05:25:49.954Z,4.21
2023-03-04T05:26:49.961Z,4.21
2023-03-04T05:27:49.969Z,4.24
2023-03-04T05:28:49.976Z,4.24
2023-03-04T05:29:49.987Z,4.22
2023-03-04T05:30:50.015Z,4.24
2023-03-04T05:31:50.013Z,4.32
2023-03-04T05:32:50.013Z,4.30
2023-03-04T05:33:50.027Z,4.30
2023-03-04T05:34:50.033Z,4.25
2023-03-04T05:35:50.102Z,4.27
2023-03-04T05:36:50.056Z,4.27
2023-03-04T05:37:50.064Z,4.34
2023-03-04T05:38:50.076Z,4.27
2023-03-04T05:39:50.085Z,4.24
2023-03-04T05:40:50.096Z,4.34
2023-03-04T05:41:50.101Z,4.30
2023-03-04T05:42:50.113Z,4.38
2023-03-04T05:43:50.125Z,4.20
2023-03-04T05:44:50.165Z,4.31
2023-03-04T05:45:50.150Z,4.30
2023-03-04T05:46:50.246Z,4.30
2023-03-04T05:47:50.161Z,4.36
2023-03-04T05:48:50.179Z,4.28
2023-03-04T05:49:50.183Z,4.39
2023-03-04T05:50:50.195Z,4.32
2023-03-04T05:51:50.223Z,4.30
2023-03-04T05:52:50.225Z,4.30
2023-03-04T05:53:50.221Z,4.31
2023-03-04T05:54:50.228Z,4.34
2023-03-04T05:55:50.237Z,4.27
2023-03-04T05:56:50.254Z,4.32
2023-03-04T05:57:50.282Z,4.40
2023-03-04T05:58:50.306Z,4.32
2023-03-04T05:59:50.277Z,4.32
2023-03-04T06:00:50.297Z,4.34
2023-03-04T06:01:50.300Z,4.43
2023-03-04T06:02:50.354Z,4.31
2023-03-04T06:03:50.456Z,4.39
2023-03-04T06:04:50.336Z,4.40
2023-03-04T06:05:50.335Z,4.42
2023-03-04T06:06:50.358Z,4.40
2023-03-04T06:07:50.353Z,4.42
2023-03-04T06:08:50.362Z,4.34
2023-03-04T06:09:50.373Z,4.40
2023-03-04T06:10:50.384Z,4.38
2023-03-04T06:11:50.393Z,4.39
2023-03-04T06:12:50.411Z,4.42
2023-03-04T06:13:50.445Z,4.40
2023-03-04T06:14:50.420Z,4.45
2023-03-04T06:15:50.461Z,4.40
2023-03-04T06:16:50.440Z,4.46
2023-03-04T06:17:50.450Z,4.45
2023-03-04T06:18:50.460Z,4.40
2023-03-04T06:19:50.471Z,4.45
2023-03-04T06:20:50.479Z,4.45
2023-03-04T06:21:50.495Z,4.46
2023-03-04T06:22:50.503Z,4.49
2023-03-04T06:23:50.513Z,4.43
2023-03-04T06:24:50.518Z,4.42
2023-03-04T06:25:50.539Z,4.45
2023-03-04T06:26:50.536Z,4.50
2023-03-04T06:27:50.924Z,4.43
2023-03-04T06:28:50.555Z,4.42
2023-03-04T06:29:50.566Z,4.50
2023-03-04T06:30:50.578Z,4.46
2023-03-04T06:31:50.599Z,4.45
2023-03-04T06:32:50.593Z,4.53
2023-03-04T06:33:50.605Z,4.46
2023-03-04T06:34:50.613Z,4.52
2023-03-04T06:35:50.647Z,4.52
2023-03-04T06:36:50.634Z,4.52
2023-03-04T06:37:50.642Z,4.50
2023-03-04T06:38:50.656Z,4.50
2023-03-04T06:39:50.660Z,4.56
2023-03-04T06:40:50.670Z,4.56
2023-03-04T06:41:50.682Z,4.52
2023-03-04T06:42:50.690Z,4.61
2023-03-04T06:43:50.702Z,4.61
2023-03-04T06:44:50.717Z,4.56
2023-03-04T06:45:50.726Z,4.64
2023-03-04T06:46:50.749Z,4.61
2023-03-04T06:47:50.738Z,4.61
2023-03-04T06:48:50.753Z,4.66
2023-03-04T06:49:50.760Z,4.64
2023-03-04T06:50:50.769Z,4.58
2023-03-04T06:51:50.787Z,4.61
2023-03-04T06:52:50.790Z,4.58
2023-03-04T06:53:50.799Z,4.61
2023-03-04T06:54:50.812Z,4.60
2023-03-04T06:55:50.820Z,4.70
2023-03-04T06:56:50.828Z,4.68
2023-03-04T06:57:50.840Z,4.75
2023-03-04T06:58:50.859Z,4.70
2023-03-04T06:59:50.860Z,4.76
2023-03-04T07:00:50.882Z,4.74
2023-03-04T07:01:50.882Z,4.70
2023-03-04T07:02:50.889Z,4.74
2023-03-04T07:03:50.941Z,4.83
2023-03-04T07:04:50.913Z,4.86
2023-03-04T07:05:50.919Z,4.87
2023-03-04T07:06:50.928Z,4.82
2023-03-04T07:07:50.938Z,4.86
2023-03-04T07:08:50.954Z,4.86
2023-03-04T07:09:50.959Z,4.90
2023-03-04T07:10:50.970Z,4.94
2023-03-04T07:11:50.978Z,4.92
2023-03-04T07:12:50.991Z,4.90
2023-03-04T07:13:51.006Z,4.87
2023-03-04T07:14:51.009Z,4.94
2023-03-04T07:15:51.021Z,4.90
2023-03-04T07:16:51.032Z,4.90
2023-03-04T07:17:51.042Z,4.90
2023-03-04T07:18:51.049Z,4.89
2023-03-04T07:19:51.063Z,4.90
2023-03-04T07:20:51.075Z,4.86
2023-03-04T07:21:51.083Z,4.84
2023-03-04T07:22:51.091Z,4.89
2023-03-04T07:23:51.115Z,4.92
2023-03-04T07:24:51.116Z,4.83
2023-03-04T07:25:51.122Z,4.97
2023-03-04T07:26:51.132Z,4.86
2023-03-04T07:27:51.160Z,4.97
2023-03-04T07:28:51.153Z,4.98
2023-03-04T07:29:51.169Z,4.89
2023-03-04T07:30:51.173Z,4.90
2023-03-04T07:31:53.468Z,4.95
2023-03-04T07:32:51.232Z,4.95
2023-03-04T07:33:51.204Z,5.00
2023-03-04T07:34:51.216Z,4.97
2023-03-04T07:35:51.284Z,5.04
2023-03-04T07:36:51.237Z,4.98
2023-03-04T07:37:51.253Z,5.01
2023-03-04T07:38:51.261Z,5.02
2023-03-04T07:39:51.268Z,5.08
2023-03-04T07:40:51.281Z,5.05
2023-03-04T07:41:51.287Z,4.98
2023-03-04T07:42:51.297Z,5.04
2023-03-04T07:43:51.307Z,4.98
2023-03-04T07:44:51.317Z,5.05
2023-03-04T07:45:51.373Z,5.08
2023-03-04T07:46:51.338Z,5.10
2023-03-04T07:47:51.350Z,5.07
2023-03-04T07:48:51.359Z,5.12
2023-03-04T07:49:51.370Z,5.16
2023-03-04T07:50:51.381Z,5.18
2023-03-04T07:51:51.392Z,5.13
2023-03-04T07:52:51.409Z,5.18
2023-03-04T07:53:51.416Z,5.22
2023-03-04T07:54:51.424Z,5.23
2023-03-04T07:55:51.435Z,5.16
2023-03-04T07:56:51.448Z,5.22
2023-03-04T07:57:51.455Z,5.20
2023-03-04T07:58:51.465Z,5.20
2023-03-04T07:59:51.478Z,5.15
2023-03-04T08:00:51.488Z,5.15
2023-03-04T08:01:51.497Z,5.18
2023-03-04T08:02:51.548Z,5.13
2023-03-04T08:03:51.535Z,5.16
2023-03-04T08:04:51.532Z,5.15
2023-03-04T08:05:51.538Z,5.16
2023-03-04T08:06:51.551Z,5.13
2023-03-04T08:07:51.561Z,5.16
2023-03-04T08:08:51.570Z,5.15
2023-03-04T08:09:51.580Z,5.16
2023-03-04T08:10:51.593Z,5.13
2023-03-04T08:11:51.600Z,5.13
2023-03-04T08:12:51.609Z,5.08
2023-03-04T08:13:51.623Z,5.19
2023-03-04T08:14:51.645Z,5.10
2023-03-04T08:15:51.688Z,5.19
2023-03-04T08:16:51.650Z,5.16
2023-03-04T08:17:51.661Z,5.20
2023-03-04T08:18:51.679Z,5.16
2023-03-04T08:19:51.682Z,5.22
2023-03-04T08:20:51.694Z,5.25
2023-03-04T08:21:51.709Z,5.20
2023-03-04T08:22:51.715Z,5.28
2023-03-04T08:23:51.761Z,5.25
2023-03-04T08:24:51.737Z,5.25
2023-03-04T08:25:51.752Z,5.25
2023-03-04T08:26:51.754Z,5.33
2023-03-04T08:27:51.766Z,5.40
2023-03-04T08:28:51.778Z,5.34
2023-03-04T08:29:51.794Z,5.26
2023-03-04T08:30:51.815Z,5.37
2023-03-04T08:31:51.977Z,5.44
2023-03-04T08:32:51.831Z,5.37
2023-03-04T08:33:51.832Z,5.41
2023-03-04T08:34:51.848Z,5.44
2023-03-04T08:35:51.915Z,5.49
2023-03-04T08:36:51.861Z,5.47
2023-03-04T08:37:51.876Z,5.52
2023-03-04T08:38:51.898Z,5.51
2023-03-04T08:39:51.894Z,5.52
2023-03-04T08:40:51.902Z,5.59
2023-03-04T08:41:51.922Z,5.52
2023-03-04T08:42:51.929Z,5.54
2023-03-04T08:43:51.939Z,5.47
2023-03-04T08:44:51.952Z,5.54
2023-03-04T08:45:52.005Z,5.58
2023-03-04T08:46:51.971Z,5.51
2023-03-04T08:47:51.992Z,5.64
2023-03-04T08:48:51.992Z,5.64
2023-03-04T08:49:52.014Z,5.65
2023-03-04T08:50:52.027Z,5.59
2023-03-04T08:51:52.033Z,5.64
2023-03-04T08:52:52.053Z,5.69
2023-03-04T08:53:52.051Z,5.70
2023-03-04T08:54:52.063Z,5.73
2023-03-04T08:55:52.081Z,5.76
2023-03-04T08:56:52.108Z,5.74
2023-03-04T08:57:52.113Z,5.81
2023-03-04T08:58:52.108Z,5.88
2023-03-04T08:59:52.118Z,5.80
2023-03-04T09:00:52.133Z,5.88
2023-03-04T09:01:52.195Z,5.92
2023-03-04T09:02:52.154Z,5.95
2023-03-04T09:03:52.236Z,5.90
2023-03-04T09:04:52.186Z,5.90
2023-03-04T09:05:52.194Z,5.97
2023-03-04T09:06:53.972Z,5.98
2023-03-04T09:07:52.217Z,5.98
2023-03-04T09:08:52.226Z,5.98
2023-03-04T09:09:52.247Z,5.99
2023-03-04T09:10:52.245Z,5.95
2023-03-04T09:11:52.263Z,5.92
2023-03-04T09:12:52.273Z,5.99
2023-03-04T09:13:52.316Z,6.01
2023-03-04T09:15:08.331Z,5.98
2023-03-04T09:15:52.321Z,5.91
2023-03-04T09:16:52.313Z,6.02
2023-03-04T09:17:52.326Z,6.07
2023-03-04T09:18:52.336Z,6.09
2023-03-04T09:19:52.349Z,6.07
2023-03-04T09:20:52.363Z,6.06
2023-03-04T09:21:52.375Z,6.06
2023-03-04T09:22:52.384Z,6.02
2023-03-04T09:23:52.398Z,6.01
2023-03-04T09:24:52.407Z,6.09
2023-03-04T09:25:52.417Z,6.05
2023-03-04T09:26:52.431Z,6.01
2023-03-04T09:27:52.458Z,6.02
2023-03-04T09:28:52.457Z,6.13
2023-03-04T09:29:52.465Z,5.98
2023-03-04T09:30:52.481Z,6.13
2023-03-04T09:31:52.497Z,6.05
2023-03-04T09:32:52.500Z,6.01
2023-03-04T09:33:52.516Z,6.16
2023-03-04T09:34:52.525Z,6.10
2023-03-04T09:35:52.563Z,6.19
2023-03-04T09:36:52.548Z,6.20
2023-03-04T09:37:52.560Z,6.17
2023-03-04T09:38:52.573Z,6.07
2023-03-04T09:39:52.585Z,6.22
2023-03-04T09:40:52.600Z,6.12
2023-03-04T09:41:52.606Z,6.10
2023-03-04T09:42:52.620Z,6.09
2023-03-04T09:43:52.635Z,6.16
2023-03-04T09:44:52.641Z,6.15
2023-03-04T09:45:52.655Z,6.22
2023-03-04T09:46:52.743Z,6.15
2023-03-04T09:47:52.679Z,6.20
2023-03-04T09:48:52.690Z,6.17
2023-03-04T09:49:52.700Z,6.13
2023-03-04T09:50:52.712Z,6.22
2023-03-04T09:51:52.725Z,6.16
2023-03-04T09:52:52.739Z,6.19
2023-03-04T09:53:52.746Z,6.12
2023-03-04T09:54:52.761Z,6.15
2023-03-04T09:55:52.769Z,6.17
2023-03-04T09:56:52.780Z,6.10
2023-03-04T09:57:52.794Z,6.05
2023-03-04T09:58:52.809Z,6.05
2023-03-04T09:59:52.815Z,6.02
2023-03-04T10:00:52.848Z,6.06
2023-03-04T10:01:52.839Z,6.05
2023-03-04T10:02:52.849Z,6.05
2023-03-04T10:03:52.900Z,5.99
2023-03-04T10:04:52.927Z,5.98
2023-03-04T10:05:52.882Z,6.02
2023-03-04T10:06:52.896Z,6.07
2023-03-04T10:07:52.911Z,6.07
2023-03-04T10:08:52.918Z,6.12
2023-03-04T10:09:52.932Z,6.16
2023-03-04T10:10:53.012Z,6.16
2023-03-04T10:11:52.970Z,6.09
2023-03-04T10:12:52.963Z,6.13
2023-03-04T10:13:52.977Z,6.12
2023-03-04T10:14:52.995Z,6.19
2023-03-04T10:15:53.016Z,6.19
2023-03-04T10:16:53.014Z,6.19
2023-03-04T10:17:53.023Z,6.16
2023-03-04T10:18:53.040Z,6.19
2023-03-04T10:19:53.049Z,6.16
2023-03-04T10:20:53.058Z,6.17
2023-03-04T10:21:53.084Z,6.15
2023-03-04T10:22:53.078Z,6.16
2023-03-04T10:23:53.093Z,6.13
2023-03-04T10:24:53.103Z,6.25
2023-03-04T10:25:53.113Z,6.15
2023-03-04T10:26:53.125Z,6.22
2023-03-04T10:27:53.149Z,6.16
2023-03-04T10:28:53.147Z,6.26
2023-03-04T10:29:53.175Z,6.31
2023-03-04T10:30:53.170Z,6.31
2023-03-04T10:31:53.195Z,6.28
2023-03-04T10:32:53.196Z,6.34
2023-03-04T10:33:53.199Z,6.44
2023-03-04T10:34:53.213Z,6.44
2023-03-04T10:35:53.295Z,6.47
2023-03-04T10:36:53.234Z,6.43
2023-03-04T10:37:53.246Z,6.43
2023-03-04T10:38:53.260Z,6.47
2023-03-04T10:39:53.272Z,6.47
2023-03-04T10:40:53.280Z,6.49
2023-03-04T10:41:53.382Z,6.56
2023-03-04T10:42:53.309Z,6.59
2023-03-04T10:43:53.319Z,6.56
2023-03-04T10:44:53.370Z,6.64
2023-03-04T10:45:53.370Z,6.82
2023-03-04T10:46:53.356Z,6.74
2023-03-04T10:47:53.363Z,6.77
2023-03-04T10:48:53.375Z,6.80
2023-03-04T10:49:53.397Z,6.77
2023-03-04T10:50:53.403Z,6.77
2023-03-04T10:51:53.415Z,6.87
2023-03-04T10:52:53.423Z,6.85
2023-03-04T10:53:53.433Z,6.86
2023-03-04T10:54:53.450Z,7.00
2023-03-04T10:55:53.465Z,6.96
2023-03-04T10:56:53.475Z,7.05
2023-03-04T10:57:53.525Z,7.11
2023-03-04T10:58:53.494Z,7.13
2023-03-04T10:59:53.636Z,7.19
2023-03-04T11:00:53.589Z,7.18
2023-03-04T11:01:53.531Z,7.26
2023-03-04T11:02:53.544Z,7.23
2023-03-04T11:03:53.676Z,7.26
2023-03-04T11:04:53.599Z,7.29
2023-03-04T11:05:53.586Z,7.43
2023-03-04T11:06:53.595Z,7.39
2023-03-04T11:07:56.625Z,7.41
2023-03-04T11:08:53.620Z,7.47
2023-03-04T11:09:53.657Z,7.56
2023-03-04T11:10:53.647Z,7.56
2023-03-04T11:11:53.661Z,7.50
2023-03-04T11:12:53.671Z,7.50
2023-03-04T11:13:53.688Z,7.53
2023-03-04T11:14:53.708Z,7.53
2023-03-04T11:15:54.567Z,7.59
2023-03-04T11:16:54.483Z,7.69
2023-03-04T11:17:53.736Z,7.50
2023-03-04T11:18:53.760Z,7.67
2023-03-04T11:19:53.761Z,7.58
2023-03-04T11:20:53.778Z,7.50
2023-03-04T11:21:53.797Z,7.61
2023-03-04T11:22:53.800Z,7.61
2023-03-04T11:23:53.814Z,7.51
2023-03-04T11:24:53.827Z,7.51
2023-03-04T11:25:53.840Z,7.67
2023-03-04T11:26:53.868Z,7.55
2023-03-04T11:27:53.871Z,7.67
2023-03-04T11:28:53.881Z,7.62
2023-03-04T11:29:53.909Z,7.61
2023-03-04T11:30:53.926Z,7.61
2023-03-04T11:31:53.950Z,7.61
2023-03-04T11:32:53.929Z,7.56
2023-03-04T11:33:53.948Z,7.50
2023-03-04T11:34:53.974Z,7.50
2023-03-04T11:35:53.991Z,7.62
2023-03-04T11:36:53.988Z,7.55
2023-03-04T11:37:54.008Z,7.53
2023-03-04T11:38:54.029Z,7.51
2023-03-04T11:39:54.040Z,7.51
2023-03-04T11:40:54.048Z,7.48
2023-03-04T11:41:54.065Z,7.46
2023-03-04T11:42:54.089Z,7.53
2023-03-04T11:43:54.098Z,7.40
2023-03-04T11:44:54.114Z,7.40
2023-03-04T11:45:54.168Z,7.41
2023-03-04T11:46:54.137Z,7.32
2023-03-04T11:47:54.149Z,7.29
2023-03-04T11:48:54.168Z,7.28
2023-03-04T11:49:54.182Z,7.28
2023-03-04T11:50:54.206Z,7.25
2023-03-04T11:51:54.204Z,7.26
2023-03-04T11:52:54.218Z,7.31
2023-03-04T11:53:54.229Z,7.36
2023-03-04T11:54:54.243Z,7.28
2023-03-04T11:55:54.252Z,7.37
2023-03-04T11:56:54.271Z,7.37
2023-03-04T11:57:54.288Z,7.29
2023-03-04T11:58:54.288Z,7.26
2023-03-04T11:59:54.301Z,7.26
2023-03-04T12:00:54.323Z,7.26
2023-03-04T12:01:54.336Z,7.26
2023-03-04T12:02:54.343Z,7.28
2023-03-04T12:03:54.456Z,7.29
2023-03-04T12:04:54.418Z,7.33
2023-03-04T12:05:54.463Z,7.29
2023-03-04T12:06:54.388Z,7.25
2023-03-04T12:07:54.400Z,7.28
2023-03-04T12:08:54.414Z,7.29
2023-03-04T12:09:54.426Z,7.40
2023-03-04T12:10:54.441Z,7.33
2023-03-04T12:11:54.463Z,7.32
2023-03-04T12:12:54.466Z,7.25
2023-03-04T12:13:54.475Z,7.28
2023-03-04T12:14:54.487Z,7.28
2023-03-04T12:15:54.598Z,7.23
2023-03-04T12:16:54.520Z,7.22
2023-03-04T12:17:54.528Z,7.26
2023-03-04T12:18:54.543Z,7.21
2023-03-04T12:19:54.551Z,7.23
2023-03-04T12:20:54.564Z,7.11
2023-03-04T12:21:54.575Z,7.23
2023-03-04T12:22:54.598Z,7.26
2023-03-04T12:23:54.603Z,7.15
2023-03-04T12:24:54.617Z,7.25
2023-03-04T12:25:54.624Z,7.23
2023-03-04T12:26:54.642Z,7.18
2023-03-04T12:27:54.655Z,7.13
2023-03-04T12:28:54.668Z,7.13
2023-03-04T12:29:54.681Z,7.25
2023-03-04T12:30:54.740Z,7.07
2023-03-04T12:31:54.698Z,7.21
2023-03-04T12:32:54.714Z,7.22
2023-03-04T12:33:54.722Z,7.18
2023-03-04T12:34:54.735Z,7.15
2023-03-04T12:35:54.830Z,7.22
2023-03-04T12:36:54.758Z,7.23
2023-03-04T12:37:54.779Z,7.23
2023-03-04T12:38:54.799Z,7.31
2023-03-04T12:39:54.798Z,7.26
2023-03-04T12:40:54.815Z,7.25
2023-03-04T12:41:54.822Z,7.19
2023-03-04T12:42:54.833Z,7.26
2023-03-04T12:43:54.856Z,7.21
2023-03-04T12:44:54.894Z,7.26
2023-03-04T12:45:54.873Z,7.25
2023-03-04T12:46:54.892Z,7.19
2023-03-04T12:47:54.898Z,7.15
2023-03-04T12:48:54.910Z,7.26
2023-03-04T12:49:54.922Z,7.22
2023-03-04T12:50:54.935Z,7.18
2023-03-04T12:51:54.948Z,7.22
2023-03-04T12:52:54.959Z,7.22
2023-03-04T12:53:54.973Z,7.18
2023-03-04T12:54:54.986Z,7.21
2023-03-04T12:55:54.997Z,7.19
2023-03-04T12:56:55.016Z,7.11
2023-03-04T12:57:55.021Z,7.13
2023-03-04T12:58:55.034Z,7.11
2023-03-04T12:59:55.045Z,7.10
2023-03-04T13:00:55.059Z,7.07
2023-03-04T13:01:55.066Z,7.10
2023-03-04T13:02:55.151Z,7.22
2023-03-04T13:03:55.182Z,7.11
2023-03-04T13:04:55.105Z,7.18
2023-03-04T13:05:55.117Z,7.22
2023-03-04T13:06:55.132Z,7.18
2023-03-04T13:07:55.143Z,7.13
2023-03-04T13:08:55.157Z,7.13
2023-03-04T13:09:55.170Z,7.15
2023-03-04T13:10:55.181Z,7.13
2023-03-04T13:11:55.745Z,7.13
2023-03-04T13:12:55.204Z,7.11
2023-03-04T13:13:55.220Z,7.05
2023-03-04T13:14:55.228Z,7.10
2023-03-04T13:15:55.715Z,6.92
2023-03-04T13:16:55.252Z,6.97
2023-03-04T13:17:55.836Z,6.95
2023-03-04T13:18:55.823Z,7.00